<?xml version="1.0" encoding="UTF-8"?>
<gpx creator="Garmin Connect" version="1.1"
  xsi:schemaLocation="http://www.topografix.com/GPX/1/1 http://www.topografix.com/GPX/11.xsd"
  xmlns:ns3="http://www.garmin.com/xmlschemas/TrackPointExtension/v1"
  xmlns="http://www.topografix.com/GPX/1/1"
  xmlns:xsi="http://www.w3.org/2001/XMLSchema-instance" xmlns:ns2="http://www.garmin.com/xmlschemas/GpxExtensions/v3">
  <metadata>
    <link href="connect.garmin.com">
      <text>Garmin Connect</text>
    </link>
    <time>2023-07-02T07:19:25.000Z</time>
  </metadata>
  <trk>
    <name>Aalen Laufen</name>
    <type>running</type>
    <trkseg>
      <trkpt lat="48.880738355219364166259765625" lon="10.136461146175861358642578125">
        <ele>484</ele>
        <time>2023-07-02T07:19:25.000Z</time>
        <extensions>
          <ns3:TrackPointExtension>
            <ns3:hr>83</ns3:hr>
            <ns3:cad>0</ns3:cad>
          </ns3:TrackPointExtension>
        </extensions>
      </trkpt>
      <trkpt lat="48.88073475100100040435791015625" lon="10.13646240346133708953857421875">
        <ele>484</ele>
        <time>2023-07-02T07:19:26.000Z</time>
        <extensions>
          <ns3:TrackPointExtension>
            <ns3:hr>78</ns3:hr>
            <ns3:cad>0</ns3:cad>
          </ns3:TrackPointExtension>
        </extensions>
      </trkpt>
      <trkpt lat="48.880850337445735931396484375" lon="10.13635285198688507080078125">
        <ele>484</ele>
        <time>2023-07-02T07:19:41.000Z</time>
        <extensions>
          <ns3:TrackPointExtension>
            <ns3:hr>82</ns3:hr>
            <ns3:cad>83</ns3:cad>
          </ns3:TrackPointExtension>
        </extensions>
      </trkpt>
      <trkpt lat="48.88093038462102413177490234375" lon="10.13634019531309604644775390625">
        <ele>484</ele>
        <time>2023-07-02T07:19:47.000Z</time>
        <extensions>
          <ns3:TrackPointExtension>
            <ns3:hr>86</ns3:hr>
            <ns3:cad>82</ns3:cad>
          </ns3:TrackPointExtension>
        </extensions>
      </trkpt>
      <trkpt lat="48.8809447176754474639892578125" lon="10.136327706277370452880859375">
        <ele>484</ele>
        <time>2023-07-02T07:19:48.000Z</time>
        <extensions>
          <ns3:TrackPointExtension>
            <ns3:hr>89</ns3:hr>
            <ns3:cad>82</ns3:cad>
          </ns3:TrackPointExtension>
        </extensions>
      </trkpt>
      <trkpt lat="48.88099207542836666107177734375" lon="10.13630230911076068878173828125">
        <ele>483.79998779296875</ele>
        <time>2023-07-02T07:19:51.000Z</time>
        <extensions>
          <ns3:TrackPointExtension>
            <ns3:hr>94</ns3:hr>
            <ns3:cad>83</ns3:cad>
          </ns3:TrackPointExtension>
        </extensions>
      </trkpt>
      <trkpt lat="48.881013952195644378662109375" lon="10.13629526831209659576416015625">
        <ele>483.79998779296875</ele>
        <time>2023-07-02T07:19:52.000Z</time>
        <extensions>
          <ns3:TrackPointExtension>
            <ns3:hr>97</ns3:hr>
            <ns3:cad>83</ns3:cad>
          </ns3:TrackPointExtension>
        </extensions>
      </trkpt>
      <trkpt lat="48.88103717006742954254150390625" lon="10.13628370128571987152099609375">
        <ele>483.600006103515625</ele>
        <time>2023-07-02T07:19:53.000Z</time>
        <extensions>
          <ns3:TrackPointExtension>
            <ns3:hr>100</ns3:hr>
            <ns3:cad>83</ns3:cad>
          </ns3:TrackPointExtension>
        </extensions>
      </trkpt>
      <trkpt lat="48.8810613937675952911376953125" lon="10.13627129606902599334716796875">
        <ele>483.600006103515625</ele>
        <time>2023-07-02T07:19:54.000Z</time>
        <extensions>
          <ns3:TrackPointExtension>
            <ns3:hr>100</ns3:hr>
            <ns3:cad>83</ns3:cad>
          </ns3:TrackPointExtension>
        </extensions>
      </trkpt>
      <trkpt lat="48.88114328496158123016357421875" lon="10.13622804544866085052490234375">
        <ele>483.20001220703125</ele>
        <time>2023-07-02T07:19:57.000Z</time>
        <extensions>
          <ns3:TrackPointExtension>
            <ns3:hr>104</ns3:hr>
            <ns3:cad>84</ns3:cad>
          </ns3:TrackPointExtension>
        </extensions>
      </trkpt>
      <trkpt lat="48.88119173236191272735595703125" lon="10.136205665767192840576171875">
        <ele>483.20001220703125</ele>
        <time>2023-07-02T07:19:59.000Z</time>
        <extensions>
          <ns3:TrackPointExtension>
            <ns3:hr>107</ns3:hr>
            <ns3:cad>85</ns3:cad>
          </ns3:TrackPointExtension>
        </extensions>
      </trkpt>
      <trkpt lat="48.88131377287209033966064453125" lon="10.13619284145534038543701171875">
        <ele>483</ele>
        <time>2023-07-02T07:20:04.000Z</time>
        <extensions>
          <ns3:TrackPointExtension>
            <ns3:hr>110</ns3:hr>
            <ns3:cad>84</ns3:cad>
          </ns3:TrackPointExtension>
        </extensions>
      </trkpt>
      <trkpt lat="48.88139859773218631744384765625" lon="10.1361863873898983001708984375">
        <ele>482.79998779296875</ele>
        <time>2023-07-02T07:20:08.000Z</time>
        <extensions>
          <ns3:TrackPointExtension>
            <ns3:hr>113</ns3:hr>
            <ns3:cad>83</ns3:cad>
          </ns3:TrackPointExtension>
        </extensions>
      </trkpt>
      <trkpt lat="48.88142424635589122772216796875" lon="10.13618445955216884613037109375">
        <ele>482.600006103515625</ele>
        <time>2023-07-02T07:20:09.000Z</time>
        <extensions>
          <ns3:TrackPointExtension>
            <ns3:hr>116</ns3:hr>
            <ns3:cad>83</ns3:cad>
          </ns3:TrackPointExtension>
        </extensions>
      </trkpt>
      <trkpt lat="48.8815136812627315521240234375" lon="10.13619485311210155487060546875">
        <ele>482.20001220703125</ele>
        <time>2023-07-02T07:20:13.000Z</time>
        <extensions>
          <ns3:TrackPointExtension>
            <ns3:hr>119</ns3:hr>
            <ns3:cad>83</ns3:cad>
          </ns3:TrackPointExtension>
        </extensions>
      </trkpt>
      <trkpt lat="48.8815814070403575897216796875" lon="10.1361974515020847320556640625">
        <ele>482</ele>
        <time>2023-07-02T07:20:17.000Z</time>
        <extensions>
          <ns3:TrackPointExtension>
            <ns3:hr>116</ns3:hr>
            <ns3:cad>82</ns3:cad>
          </ns3:TrackPointExtension>
        </extensions>
      </trkpt>
      <trkpt lat="48.881628848612308502197265625" lon="10.13618814758956432342529296875">
        <ele>481.79998779296875</ele>
        <time>2023-07-02T07:20:20.000Z</time>
        <extensions>
          <ns3:TrackPointExtension>
            <ns3:hr>122</ns3:hr>
            <ns3:cad>83</ns3:cad>
          </ns3:TrackPointExtension>
        </extensions>
      </trkpt>
      <trkpt lat="48.88174996711313724517822265625" lon="10.1361002214252948760986328125">
        <ele>481.79998779296875</ele>
        <time>2023-07-02T07:20:27.000Z</time>
        <extensions>
          <ns3:TrackPointExtension>
            <ns3:hr>116</ns3:hr>
            <ns3:cad>84</ns3:cad>
          </ns3:TrackPointExtension>
        </extensions>
      </trkpt>
      <trkpt lat="48.88180796988308429718017578125" lon="10.1360733993351459503173828125">
        <ele>481.79998779296875</ele>
        <time>2023-07-02T07:20:30.000Z</time>
        <extensions>
          <ns3:TrackPointExtension>
            <ns3:hr>113</ns3:hr>
            <ns3:cad>84</ns3:cad>
          </ns3:TrackPointExtension>
        </extensions>
      </trkpt>
      <trkpt lat="48.881843425333499908447265625" lon="10.13605001382529735565185546875">
        <ele>481.79998779296875</ele>
        <time>2023-07-02T07:20:32.000Z</time>
        <extensions>
          <ns3:TrackPointExtension>
            <ns3:hr>118</ns3:hr>
            <ns3:cad>83</ns3:cad>
          </ns3:TrackPointExtension>
        </extensions>
      </trkpt>
      <trkpt lat="48.88186496682465076446533203125" lon="10.136049091815948486328125">
        <ele>481.600006103515625</ele>
        <time>2023-07-02T07:20:33.000Z</time>
        <extensions>
          <ns3:TrackPointExtension>
            <ns3:hr>118</ns3:hr>
            <ns3:cad>83</ns3:cad>
          </ns3:TrackPointExtension>
        </extensions>
      </trkpt>
      <trkpt lat="48.881884329020977020263671875" lon="10.1360402069985866546630859375">
        <ele>481.600006103515625</ele>
        <time>2023-07-02T07:20:34.000Z</time>
        <extensions>
          <ns3:TrackPointExtension>
            <ns3:hr>121</ns3:hr>
            <ns3:cad>84</ns3:cad>
          </ns3:TrackPointExtension>
        </extensions>
      </trkpt>
      <trkpt lat="48.88198767788708209991455078125" lon="10.13593249954283237457275390625">
        <ele>481.20001220703125</ele>
        <time>2023-07-02T07:20:41.000Z</time>
        <extensions>
          <ns3:TrackPointExtension>
            <ns3:hr>117</ns3:hr>
            <ns3:cad>84</ns3:cad>
          </ns3:TrackPointExtension>
        </extensions>
      </trkpt>
      <trkpt lat="48.8820233009755611419677734375" lon="10.13590148650109767913818359375">
        <ele>481</ele>
        <time>2023-07-02T07:20:43.000Z</time>
        <extensions>
          <ns3:TrackPointExtension>
            <ns3:hr>114</ns3:hr>
            <ns3:cad>84</ns3:cad>
          </ns3:TrackPointExtension>
        </extensions>
      </trkpt>
      <trkpt lat="48.8820796273648738861083984375" lon="10.1358534581959247589111328125">
        <ele>480.79998779296875</ele>
        <time>2023-07-02T07:20:46.000Z</time>
        <extensions>
          <ns3:TrackPointExtension>
            <ns3:hr>111</ns3:hr>
            <ns3:cad>84</ns3:cad>
          </ns3:TrackPointExtension>
        </extensions>
      </trkpt>
      <trkpt lat="48.88210904784500598907470703125" lon="10.135808028280735015869140625">
        <ele>480.79998779296875</ele>
        <time>2023-07-02T07:20:48.000Z</time>
        <extensions>
          <ns3:TrackPointExtension>
            <ns3:hr>114</ns3:hr>
            <ns3:cad>84</ns3:cad>
          </ns3:TrackPointExtension>
        </extensions>
      </trkpt>
      <trkpt lat="48.88214341364800930023193359375" lon="10.13569780625402927398681640625">
        <ele>480.79998779296875</ele>
        <time>2023-07-02T07:20:52.000Z</time>
        <extensions>
          <ns3:TrackPointExtension>
            <ns3:hr>118</ns3:hr>
            <ns3:cad>82</ns3:cad>
          </ns3:TrackPointExtension>
        </extensions>
      </trkpt>
      <trkpt lat="48.88212941586971282958984375" lon="10.13562069274485111236572265625">
        <ele>481.20001220703125</ele>
        <time>2023-07-02T07:20:55.000Z</time>
        <extensions>
          <ns3:TrackPointExtension>
            <ns3:hr>115</ns3:hr>
            <ns3:cad>83</ns3:cad>
          </ns3:TrackPointExtension>
        </extensions>
      </trkpt>
      <trkpt lat="48.88212329708039760589599609375" lon="10.13556319288909435272216796875">
        <ele>481.399993896484375</ele>
        <time>2023-07-02T07:20:57.000Z</time>
        <extensions>
          <ns3:TrackPointExtension>
            <ns3:hr>118</ns3:hr>
            <ns3:cad>83</ns3:cad>
          </ns3:TrackPointExtension>
        </extensions>
      </trkpt>
      <trkpt lat="48.88207920826971530914306640625" lon="10.13531793840229511260986328125">
        <ele>482.79998779296875</ele>
        <time>2023-07-02T07:21:06.000Z</time>
        <extensions>
          <ns3:TrackPointExtension>
            <ns3:hr>121</ns3:hr>
            <ns3:cad>84</ns3:cad>
          </ns3:TrackPointExtension>
        </extensions>
      </trkpt>
      <trkpt lat="48.8820229656994342803955078125" lon="10.1350561715662479400634765625">
        <ele>484.600006103515625</ele>
        <time>2023-07-02T07:21:16.000Z</time>
        <extensions>
          <ns3:TrackPointExtension>
            <ns3:hr>121</ns3:hr>
            <ns3:cad>85</ns3:cad>
          </ns3:TrackPointExtension>
        </extensions>
      </trkpt>
      <trkpt lat="48.88193302787840366363525390625" lon="10.13479138724505901336669921875">
        <ele>486.20001220703125</ele>
        <time>2023-07-02T07:21:27.000Z</time>
        <extensions>
          <ns3:TrackPointExtension>
            <ns3:hr>123</ns3:hr>
            <ns3:cad>84</ns3:cad>
          </ns3:TrackPointExtension>
        </extensions>
      </trkpt>
      <trkpt lat="48.8818471133708953857421875" lon="10.13453272171318531036376953125">
        <ele>487.399993896484375</ele>
        <time>2023-07-02T07:21:37.000Z</time>
        <extensions>
          <ns3:TrackPointExtension>
            <ns3:hr>126</ns3:hr>
            <ns3:cad>84</ns3:cad>
          </ns3:TrackPointExtension>
        </extensions>
      </trkpt>
      <trkpt lat="48.881733119487762451171875" lon="10.13428847305476665496826171875">
        <ele>488.399993896484375</ele>
        <time>2023-07-02T07:21:47.000Z</time>
        <extensions>
          <ns3:TrackPointExtension>
            <ns3:hr>127</ns3:hr>
            <ns3:cad>83</ns3:cad>
          </ns3:TrackPointExtension>
        </extensions>
      </trkpt>
      <trkpt lat="48.88168693520128726959228515625" lon="10.13422049582004547119140625">
        <ele>489</ele>
        <time>2023-07-02T07:21:50.000Z</time>
        <extensions>
          <ns3:TrackPointExtension>
            <ns3:hr>124</ns3:hr>
            <ns3:cad>85</ns3:cad>
          </ns3:TrackPointExtension>
        </extensions>
      </trkpt>
      <trkpt lat="48.88163597323000431060791015625" lon="10.13416777364909648895263671875">
        <ele>489.600006103515625</ele>
        <time>2023-07-02T07:21:53.000Z</time>
        <extensions>
          <ns3:TrackPointExtension>
            <ns3:hr>128</ns3:hr>
            <ns3:cad>85</ns3:cad>
          </ns3:TrackPointExtension>
        </extensions>
      </trkpt>
      <trkpt lat="48.88148057274520397186279296875" lon="10.1339879818260669708251953125">
        <ele>490.79998779296875</ele>
        <time>2023-07-02T07:22:03.000Z</time>
        <extensions>
          <ns3:TrackPointExtension>
            <ns3:hr>128</ns3:hr>
            <ns3:cad>85</ns3:cad>
          </ns3:TrackPointExtension>
        </extensions>
      </trkpt>
      <trkpt lat="48.8813886232674121856689453125" lon="10.13376343064010143280029296875">
        <ele>490.20001220703125</ele>
        <time>2023-07-02T07:22:12.000Z</time>
        <extensions>
          <ns3:TrackPointExtension>
            <ns3:hr>128</ns3:hr>
            <ns3:cad>84</ns3:cad>
          </ns3:TrackPointExtension>
        </extensions>
      </trkpt>
      <trkpt lat="48.88145542703568935394287109375" lon="10.13347492553293704986572265625">
        <ele>488.79998779296875</ele>
        <time>2023-07-02T07:22:21.000Z</time>
        <extensions>
          <ns3:TrackPointExtension>
            <ns3:hr>129</ns3:hr>
            <ns3:cad>83</ns3:cad>
          </ns3:TrackPointExtension>
        </extensions>
      </trkpt>
      <trkpt lat="48.88157143257558345794677734375" lon="10.13326252810657024383544921875">
        <ele>487.600006103515625</ele>
        <time>2023-07-02T07:22:28.000Z</time>
        <extensions>
          <ns3:TrackPointExtension>
            <ns3:hr>128</ns3:hr>
            <ns3:cad>82</ns3:cad>
          </ns3:TrackPointExtension>
        </extensions>
      </trkpt>
      <trkpt lat="48.8817178644239902496337890625" lon="10.1330575905740261077880859375">
        <ele>485.79998779296875</ele>
        <time>2023-07-02T07:22:36.000Z</time>
        <extensions>
          <ns3:TrackPointExtension>
            <ns3:hr>127</ns3:hr>
            <ns3:cad>81</ns3:cad>
          </ns3:TrackPointExtension>
        </extensions>
      </trkpt>
      <trkpt lat="48.8818509690463542938232421875" lon="10.1328349672257900238037109375">
        <ele>483.600006103515625</ele>
        <time>2023-07-02T07:22:45.000Z</time>
        <extensions>
          <ns3:TrackPointExtension>
            <ns3:hr>125</ns3:hr>
            <ns3:cad>82</ns3:cad>
          </ns3:TrackPointExtension>
        </extensions>
      </trkpt>
      <trkpt lat="48.88189748860895633697509765625" lon="10.1325439475476741790771484375">
        <ele>481.600006103515625</ele>
        <time>2023-07-02T07:22:54.000Z</time>
        <extensions>
          <ns3:TrackPointExtension>
            <ns3:hr>125</ns3:hr>
            <ns3:cad>81</ns3:cad>
          </ns3:TrackPointExtension>
        </extensions>
      </trkpt>
      <trkpt lat="48.88194593600928783416748046875" lon="10.132472030818462371826171875">
        <ele>481</ele>
        <time>2023-07-02T07:23:00.000Z</time>
        <extensions>
          <ns3:TrackPointExtension>
            <ns3:hr>126</ns3:hr>
            <ns3:cad>81</ns3:cad>
          </ns3:TrackPointExtension>
        </extensions>
      </trkpt>
      <trkpt lat="48.881974183022975921630859375" lon="10.1324799098074436187744140625">
        <ele>480.79998779296875</ele>
        <time>2023-07-02T07:23:03.000Z</time>
        <extensions>
          <ns3:TrackPointExtension>
            <ns3:hr>125</ns3:hr>
            <ns3:cad>59</ns3:cad>
          </ns3:TrackPointExtension>
        </extensions>
      </trkpt>
    </trkseg>
  </trk>
</gpx>
